sensor_id;sensor_type;location;lat;lon;timestamp;pressure;altitude;pressure_sealevel;temperature;humidity
12475;BME280;6302;42.624;23.334;2022-09-01T00:00:36;93161.63;;;17.88;100.00
12475;BME280;6302;42.624;23.334;2022-09-01T00:03:03;93158.34;;;17.84;100.00
12475;BME280;6302;42.624;23.334;2022-09-01T00:05:30;93172.50;;;17.85;100.00
12475;BME280;6302;42.624;23.334;2022-09-01T00:07:59;93161.44;;;17.83;100.00
12475;BME280;6302;42.624;23.334;2022-09-01T00:10:25;93154.31;;;17.80;100.00
12475;BME280;6302;42.624;23.334;2022-09-01T00:12:52;93155.47;;;17.79;100.00
12475;BME280;6302;42.624;23.334;2022-09-01T00:15:19;93144.75;;;17.79;100.00
12475;BME280;6302;42.624;23.334;2022-09-01T00:17:46;93152.91;;;17.75;100.00
12475;BME280;6302;42.624;23.334;2022-09-01T00:20:13;93148.75;;;17.74;100.00
12475;BME280;6302;42.624;23.334;2022-09-01T00:22:40;93139.66;;;17.72;100.00
12475;BME280;6302;42.624;23.334;2022-09-01T00:25:08;93136.22;;;17.71;100.00
12475;BME280;6302;42.624;23.334;2022-09-01T00:27:35;93124.47;;;17.69;100.00
12475;BME280;6302;42.624;23.334;2022-09-01T00:30:02;93134.56;;;17.65;100.00
12475;BME280;6302;42.624;23.334;2022-09-01T00:32:30;93135.44;;;17.62;100.00
12475;BME280;6302;42.624;23.334;2022-09-01T00:34:56;93137.06;;;17.59;100.00
12475;BME280;6302;42.624;23.334;2022-09-01T00:37:24;93146.44;;;17.54;100.00
12475;BME280;6302;42.624;23.334;2022-09-01T00:39:50;93161.84;;;17.50;100.00
12475;BME280;6302;42.624;23.334;2022-09-01T00:42:19;93161.53;;;17.48;100.00
12475;BME280;6302;42.624;23.334;2022-09-01T00:44:45;93159.41;;;17.43;100.00
12475;BME280;6302;42.624;23.334;2022-09-01T00:47:13;93156.13;;;17.39;100.00
12475;BME280;6302;42.624;23.334;2022-09-01T00:49:42;93161.19;;;17.37;100.00
12475;BME280;6302;42.624;23.334;2022-09-01T00:52:15;93158.63;;;17.34;100.00
12475;BME280;6302;42.624;23.334;2022-09-01T00:54:44;93158.44;;;17.28;100.00
12475;BME280;6302;42.624;23.334;2022-09-01T00:57:11;93156.09;;;17.30;100.00
12475;BME280;6302;42.624;23.334;2022-09-01T00:59:46;93147.66;;;17.19;100.00
12475;BME280;6302;42.624;23.334;2022-09-01T01:02:14;93166.78;;;17.09;100.00
12475;BME280;6302;42.624;23.334;2022-09-01T01:04:41;93167.22;;;17.07;100.00
12475;BME280;6302;42.624;23.334;2022-09-01T01:07:09;93161.81;;;16.98;100.00
12475;BME280;6302;42.624;23.334;2022-09-01T01:09:39;93156.13;;;16.96;100.00
12475;BME280;6302;42.624;23.334;2022-09-01T01:12:08;93162.69;;;16.95;100.00
12475;BME280;6302;42.624;23.334;2022-09-01T01:14:45;93165.78;;;16.94;100.00
12475;BME280;6302;42.624;23.334;2022-09-01T01:17:12;93169.19;;;16.94;100.00
12475;BME280;6302;42.624;23.334;2022-09-01T01:19:41;93173.06;;;16.93;100.00
12475;BME280;6302;42.624;23.334;2022-09-01T01:22:34;93179.19;;;16.94;100.00
12475;BME280;6302;42.624;23.334;2022-09-01T01:25:21;93168.88;;;16.92;100.00
12475;BME280;6302;42.624;23.334;2022-09-01T01:27:48;93174.56;;;16.94;100.00
12475;BME280;6302;42.624;23.334;2022-09-01T01:30:16;93173.38;;;16.95;100.00
12475;BME280;6302;42.624;23.334;2022-09-01T01:32:44;93175.63;;;16.97;100.00
12475;BME280;6302;42.624;23.334;2022-09-01T01:35:13;93171.88;;;16.94;100.00
12475;BME280;6302;42.624;23.334;2022-09-01T01:37:41;93167.59;;;16.97;100.00
12475;BME280;6302;42.624;23.334;2022-09-01T01:40:10;93166.81;;;16.96;100.00
12475;BME280;6302;42.624;23.334;2022-09-01T01:42:43;93167.47;;;17.00;100.00
12475;BME280;6302;42.624;23.334;2022-09-01T01:45:11;93172.94;;;16.97;100.00
12475;BME280;6302;42.624;23.334;2022-09-01T01:47:42;93173.25;;;16.99;100.00
12475;BME280;6302;42.624;23.334;2022-09-01T01:50:11;93176.06;;;16.95;100.00
12475;BME280;6302;42.624;23.334;2022-09-01T01:52:39;93181.84;;;16.94;100.00
12475;BME280;6302;42.624;23.334;2022-09-01T01:55:08;93184.63;;;16.90;100.00
12475;BME280;6302;42.624;23.334;2022-09-01T01:57:38;93181.66;;;16.88;100.00
12475;BME280;6302;42.624;23.334;2022-09-01T02:00:16;93187.31;;;16.90;100.00
12475;BME280;6302;42.624;23.334;2022-09-01T02:02:44;93185.94;;;16.85;100.00
12475;BME280;6302;42.624;23.334;2022-09-01T02:05:19;93182.50;;;16.85;100.00
12475;BME280;6302;42.624;23.334;2022-09-01T02:07:50;93185.63;;;16.83;100.00
12475;BME280;6302;42.624;23.334;2022-09-01T02:10:22;93189.38;;;16.86;100.00
12475;BME280;6302;42.624;23.334;2022-09-01T02:12:50;93181.00;;;16.84;100.00
12475;BME280;6302;42.624;23.334;2022-09-01T02:15:18;93184.44;;;16.84;100.00
12475;BME280;6302;42.624;23.334;2022-09-01T02:17:45;93186.38;;;16.84;100.00
12475;BME280;6302;42.624;23.334;2022-09-01T02:20:13;93192.25;;;16.79;100.00
12475;BME280;6302;42.624;23.334;2022-09-01T02:22:42;93191.53;;;16.78;100.00
12475;BME280;6302;42.624;23.334;2022-09-01T02:25:10;93191.19;;;16.76;100.00
12475;BME280;6302;42.624;23.334;2022-09-01T02:27:37;93189.72;;;16.75;100.00
12475;BME280;6302;42.624;23.334;2022-09-01T02:30:08;93195.94;;;16.72;100.00
12475;BME280;6302;42.624;23.334;2022-09-01T02:32:38;93195.63;;;16.70;100.00
12475;BME280;6302;42.624;23.334;2022-09-01T02:35:07;93183.22;;;16.64;100.00
12475;BME280;6302;42.624;23.334;2022-09-01T02:37:35;93186.22;;;16.66;100.00
12475;BME280;6302;42.624;23.334;2022-09-01T02:40:06;93183.22;;;16.64;100.00
12475;BME280;6302;42.624;23.334;2022-09-01T02:42:35;93176.38;;;16.63;100.00
12475;BME280;6302;42.624;23.334;2022-09-01T02:45:06;93173.69;;;16.63;100.00
12475;BME280;6302;42.624;23.334;2022-09-01T02:47:43;93172.19;;;16.62;100.00
12475;BME280;6302;42.624;23.334;2022-09-01T02:50:13;93178.75;;;16.61;100.00
12475;BME280;6302;42.624;23.334;2022-09-01T02:52:42;93167.28;;;16.60;100.00
12475;BME280;6302;42.624;23.334;2022-09-01T02:55:09;93176.91;;;16.58;100.00
12475;BME280;6302;42.624;23.334;2022-09-01T02:57:37;93180.03;;;16.56;100.00
12475;BME280;6302;42.624;23.334;2022-09-01T03:00:07;93167.19;;;16.51;100.00
12475;BME280;6302;42.624;23.334;2022-09-01T03:02:48;93158.63;;;16.44;100.00
12475;BME280;6302;42.624;23.334;2022-09-01T03:05:16;93167.28;;;16.48;100.00
12475;BME280;6302;42.624;23.334;2022-09-01T03:07:51;93170.09;;;16.44;100.00
12475;BME280;6302;42.624;23.334;2022-09-01T03:10:22;93180.03;;;16.44;100.00
12475;BME280;6302;42.624;23.334;2022-09-01T03:12:52;93177.03;;;16.42;100.00
12475;BME280;6302;42.624;23.334;2022-09-01T03:15:19;93172.00;;;16.44;100.00
12475;BME280;6302;42.624;23.334;2022-09-01T03:17:49;93170.19;;;16.41;100.00
12475;BME280;6302;42.624;23.334;2022-09-01T03:20:16;93160.88;;;16.33;100.00
12475;BME280;6302;42.624;23.334;2022-09-01T03:22:46;93159.50;;;16.41;100.00
12475;BME280;6302;42.624;23.334;2022-09-01T03:25:13;93165.69;;;16.38;100.00
12475;BME280;6302;42.624;23.334;2022-09-01T03:27:41;93166.44;;;16.38;100.00
12475;BME280;6302;42.624;23.334;2022-09-01T03:30:08;93169.56;;;16.37;100.00
12475;BME280;6302;42.624;23.334;2022-09-01T03:32:35;93173.41;;;16.36;100.00
12475;BME280;6302;42.624;23.334;2022-09-01T03:35:04;93173.72;;;16.38;100.00
12475;BME280;6302;42.624;23.334;2022-09-01T03:37:34;93178.00;;;16.35;100.00
12475;BME280;6302;42.624;23.334;2022-09-01T03:40:03;93177.25;;;16.35;100.00
12475;BME280;6302;42.624;23.334;2022-09-01T03:42:30;93174.25;;;16.33;100.00
12475;BME280;6302;42.624;23.334;2022-09-01T03:44:57;93175.00;;;16.33;100.00
12475;BME280;6302;42.624;23.334;2022-09-01T03:47:24;93177.25;;;16.35;100.00
12475;BME280;6302;42.624;23.334;2022-09-01T03:49:51;93180.25;;;16.37;100.00
12475;BME280;6302;42.624;23.334;2022-09-01T03:52:20;93178.00;;;16.35;100.00
12475;BME280;6302;42.624;23.334;2022-09-01T03:54:52;93178.75;;;16.36;100.00
12475;BME280;6302;42.624;23.334;2022-09-01T03:57:20;93174.91;;;16.37;100.00
12475;BME280;6302;42.624;23.334;2022-09-01T03:59:47;93176.38;;;16.38;100.00
12475;BME280;6302;42.624;23.334;2022-09-01T04:02:15;93171.47;;;16.36;100.00
12475;BME280;6302;42.624;23.334;2022-09-01T04:04:42;93171.03;;;16.38;100.00
12475;BME280;6302;42.624;23.334;2022-09-01T04:07:09;93172.88;;;16.41;100.00
12475;BME280;6302;42.624;23.334;2022-09-01T04:09:37;93180.88;;;16.41;100.00
12475;BME280;6302;42.624;23.334;2022-09-01T04:12:05;93177.34;;;16.44;100.00
12475;BME280;6302;42.624;23.334;2022-09-01T04:14:35;93179.28;;;16.43;100.00
12475;BME280;6302;42.624;23.334;2022-09-01T04:17:01;93171.13;;;16.47;100.00
12475;BME280;6302;42.624;23.334;2022-09-01T04:19:46;93185.16;;;16.51;100.00
12475;BME280;6302;42.624;23.334;2022-09-01T04:22:13;93168.28;;;16.41;100.00
12475;BME280;6302;42.624;23.334;2022-09-01T04:24:43;93175.00;;;16.46;100.00
12475;BME280;6302;42.624;23.334;2022-09-01T04:27:12;93181.41;;;16.48;100.00
12475;BME280;6302;42.624;23.334;2022-09-01T04:29:39;93171.34;;;16.52;100.00
12475;BME280;6302;42.624;23.334;2022-09-01T04:32:08;93173.06;;;16.59;100.00
12475;BME280;6302;42.624;23.334;2022-09-01T04:34:37;93169.31;;;16.69;100.00
12475;BME280;6302;42.624;23.334;2022-09-01T04:37:07;93173.97;;;16.77;100.00
12475;BME280;6302;42.624;23.334;2022-09-01T04:39:34;93181.00;;;16.84;100.00
12475;BME280;6302;42.624;23.334;2022-09-01T04:42:05;93176.00;;;16.86;100.00
12475;BME280;6302;42.624;23.334;2022-09-01T04:44:34;93176.31;;;16.88;100.00
12475;BME280;6302;42.624;23.334;2022-09-01T04:47:02;93180.84;;;17.00;100.00
12475;BME280;6302;42.624;23.334;2022-09-01T04:49:35;93181.41;;;16.95;100.00
12475;BME280;6302;42.624;23.334;2022-09-01T04:52:03;93174.75;;;17.00;100.00
12475;BME280;6302;42.624;23.334;2022-09-01T04:54:29;93176.44;;;17.06;100.00
12475;BME280;6302;42.624;23.334;2022-09-01T04:56:58;93174.69;;;17.12;100.00
12475;BME280;6302;42.624;23.334;2022-09-01T04:59:26;93172.78;;;17.13;100.00
12475;BME280;6302;42.624;23.334;2022-09-01T05:01:54;93169.78;;;17.11;100.00
12475;BME280;6302;42.624;23.334;2022-09-01T05:04:26;93164.09;;;17.09;100.00
12475;BME280;6302;42.624;23.334;2022-09-01T05:06:55;93165.59;;;17.10;100.00
12475;BME280;6302;42.624;23.334;2022-09-01T05:09:24;93162.47;;;17.11;100.00
12475;BME280;6302;42.624;23.334;2022-09-01T05:11:53;93164.59;;;17.16;100.00
12475;BME280;6302;42.624;23.334;2022-09-01T05:14:21;93171.22;;;17.24;100.00
12475;BME280;6302;42.624;23.334;2022-09-01T05:16:50;93170.91;;;17.22;100.00
12475;BME280;6302;42.624;23.334;2022-09-01T05:19:21;93169.78;;;17.32;100.00
12475;BME280;6302;42.624;23.334;2022-09-01T05:21:49;93170.84;;;17.35;100.00
12475;BME280;6302;42.624;23.334;2022-09-01T05:24:18;93171.34;;;17.42;100.00
12475;BME280;6302;42.624;23.334;2022-09-01T05:26:46;93173.06;;;17.58;100.00
12475;BME280;6302;42.624;23.334;2022-09-01T05:29:15;93175.25;;;17.50;100.00
12475;BME280;6302;42.624;23.334;2022-09-01T05:31:43;93172.09;;;17.65;100.00
12475;BME280;6302;42.624;23.334;2022-09-01T05:34:13;93171.81;;;17.72;100.00
12475;BME280;6302;42.624;23.334;2022-09-01T05:36:51;93167.34;;;17.69;100.00
12475;BME280;6302;42.624;23.334;2022-09-01T05:39:18;93168.88;;;17.79;100.00
12475;BME280;6302;42.624;23.334;2022-09-01T05:41:45;93162.47;;;17.76;100.00
12475;BME280;6302;42.624;23.334;2022-09-01T05:44:14;93158.59;;;17.77;100.00
12475;BME280;6302;42.624;23.334;2022-09-01T05:46:41;93165.31;;;17.82;100.00
12475;BME280;6302;42.624;23.334;2022-09-01T05:49:10;93160.59;;;17.95;100.00
12475;BME280;6302;42.624;23.334;2022-09-01T05:51:41;93158.53;;;17.99;100.00
12475;BME280;6302;42.624;23.334;2022-09-01T05:54:09;93170.22;;;18.14;100.00
12475;BME280;6302;42.624;23.334;2022-09-01T05:56:37;93177.97;;;18.12;100.00
12475;BME280;6302;42.624;23.334;2022-09-01T05:59:05;93180.06;;;18.17;100.00
12475;BME280;6302;42.624;23.334;2022-09-01T06:01:32;93171.75;;;18.24;100.00
12475;BME280;6302;42.624;23.334;2022-09-01T06:04:02;93173.88;;;18.38;100.00
12475;BME280;6302;42.624;23.334;2022-09-01T06:06:35;93168.50;;;18.38;100.00
12475;BME280;6302;42.624;23.334;2022-09-01T06:09:06;93164.75;;;18.36;100.00
12475;BME280;6302;42.624;23.334;2022-09-01T06:11:34;93163.47;;;18.49;100.00
12475;BME280;6302;42.624;23.334;2022-09-01T06:14:02;93161.41;;;18.53;100.00
12475;BME280;6302;42.624;23.334;2022-09-01T06:16:30;93162.91;;;18.63;100.00
12475;BME280;6302;42.624;23.334;2022-09-01T06:18:57;93167.69;;;18.77;100.00
12475;BME280;6302;42.624;23.334;2022-09-01T06:21:25;93161.44;;;18.80;100.00
12475;BME280;6302;42.624;23.334;2022-09-01T06:23:54;93161.16;;;18.88;100.00
12475;BME280;6302;42.624;23.334;2022-09-01T06:26:24;93160.38;;;18.96;100.00
12475;BME280;6302;42.624;23.334;2022-09-01T06:28:54;93163.06;;;19.14;100.00
12475;BME280;6302;42.624;23.334;2022-09-01T06:31:22;93158.13;;;19.31;100.00
12475;BME280;6302;42.624;23.334;2022-09-01T06:33:50;93159.34;;;19.39;100.00
12475;BME280;6302;42.624;23.334;2022-09-01T06:36:19;93162.78;;;19.48;100.00
12475;BME280;6302;42.624;23.334;2022-09-01T06:38:46;93165.31;;;19.52;100.00
12475;BME280;6302;42.624;23.334;2022-09-01T06:41:14;93157.84;;;19.47;100.00
12475;BME280;6302;42.624;23.334;2022-09-01T06:43:45;93156.03;;;19.53;100.00
12475;BME280;6302;42.624;23.334;2022-09-01T06:46:12;93153.66;;;19.55;100.00
12475;BME280;6302;42.624;23.334;2022-09-01T06:48:39;93151.84;;;19.61;100.00
12475;BME280;6302;42.624;23.334;2022-09-01T06:51:12;93156.91;;;19.68;100.00
12475;BME280;6302;42.624;23.334;2022-09-01T06:53:40;93158.38;;;19.78;100.00
12475;BME280;6302;42.624;23.334;2022-09-01T06:56:08;93153.44;;;19.77;100.00
12475;BME280;6302;42.624;23.334;2022-09-01T06:58:38;93153.00;;;19.78;100.00
12475;BME280;6302;42.624;23.334;2022-09-01T07:01:09;93154.78;;;19.81;100.00
12475;BME280;6302;42.624;23.334;2022-09-01T07:03:41;93156.84;;;19.86;100.00
12475;BME280;6302;42.624;23.334;2022-09-01T07:06:08;93157.44;;;19.90;100.00
12475;BME280;6302;42.624;23.334;2022-09-01T07:08:36;93150.88;;;19.91;100.00
12475;BME280;6302;42.624;23.334;2022-09-01T07:11:05;93156.19;;;20.00;100.00
12475;BME280;6302;42.624;23.334;2022-09-01T07:13:33;93156.19;;;20.09;100.00
12475;BME280;6302;42.624;23.334;2022-09-01T07:16:01;93150.34;;;20.11;100.00
12475;BME280;6302;42.624;23.334;2022-09-01T07:18:31;93163.63;;;20.15;100.00
12475;BME280;6302;42.624;23.334;2022-09-01T07:20:59;93156.88;;;20.19;100.00
12475;BME280;6302;42.624;23.334;2022-09-01T07:23:31;93158.47;;;20.35;100.00
12475;BME280;6302;42.624;23.334;2022-09-01T07:25:58;93156.81;;;20.37;100.00
12475;BME280;6302;42.624;23.334;2022-09-01T07:28:25;93158.44;;;20.44;100.00
12475;BME280;6302;42.624;23.334;2022-09-01T07:30:56;93159.25;;;20.59;100.00
12475;BME280;6302;42.624;23.334;2022-09-01T07:33:25;93142.22;;;20.53;100.00
12475;BME280;6302;42.624;23.334;2022-09-01T07:35:53;93160.72;;;20.84;100.00
12475;BME280;6302;42.624;23.334;2022-09-01T07:38:21;93155.06;;;20.96;100.00
12475;BME280;6302;42.624;23.334;2022-09-01T07:40:48;93166.16;;;20.98;100.00
12475;BME280;6302;42.624;23.334;2022-09-01T07:43:20;93163.97;;;21.11;100.00
12475;BME280;6302;42.624;23.334;2022-09-01T07:45:50;93163.81;;;21.15;100.00
12475;BME280;6302;42.624;23.334;2022-09-01T07:48:22;93162.50;;;21.10;100.00
12475;BME280;6302;42.624;23.334;2022-09-01T07:50:52;93160.91;;;21.18;100.00
12475;BME280;6302;42.624;23.334;2022-09-01T07:53:23;93165.03;;;21.28;100.00
12475;BME280;6302;42.624;23.334;2022-09-01T07:55:51;93163.09;;;21.44;100.00
12475;BME280;6302;42.624;23.334;2022-09-01T07:58:19;93166.66;;;21.50;100.00
12475;BME280;6302;42.624;23.334;2022-09-01T08:00:47;93161.53;;;21.52;100.00
12475;BME280;6302;42.624;23.334;2022-09-01T08:03:15;93167.09;;;21.63;100.00
12475;BME280;6302;42.624;23.334;2022-09-01T08:05:43;93172.03;;;21.64;100.00
12475;BME280;6302;42.624;23.334;2022-09-01T08:08:12;93170.28;;;21.76;100.00
12475;BME280;6302;42.624;23.334;2022-09-01T08:10:40;93170.47;;;21.72;100.00
12475;BME280;6302;42.624;23.334;2022-09-01T08:13:09;93167.81;;;21.87;100.00
12475;BME280;6302;42.624;23.334;2022-09-01T08:15:37;93164.81;;;21.85;100.00
12475;BME280;6302;42.624;23.334;2022-09-01T08:18:04;93165.53;;;22.00;100.00
12475;BME280;6302;42.624;23.334;2022-09-01T08:20:32;93162.38;;;22.16;100.00
12475;BME280;6302;42.624;23.334;2022-09-01T08:23:02;93163.25;;;22.28;100.00
12475;BME280;6302;42.624;23.334;2022-09-01T08:25:31;93165.16;;;22.22;100.00
12475;BME280;6302;42.624;23.334;2022-09-01T08:28:00;93165.44;;;22.24;100.00
12475;BME280;6302;42.624;23.334;2022-09-01T08:30:27;93163.09;;;22.31;100.00
12475;BME280;6302;42.624;23.334;2022-09-01T08:32:57;93166.31;;;22.35;100.00
12475;BME280;6302;42.624;23.334;2022-09-01T08:35:25;93163.97;;;22.43;100.00
12475;BME280;6302;42.624;23.334;2022-09-01T08:37:54;93165.13;;;22.36;100.00
12475;BME280;6302;42.624;23.334;2022-09-01T08:40:21;93162.16;;;22.34;100.00
12475;BME280;6302;42.624;23.334;2022-09-01T08:42:54;93155.38;;;22.24;100.00
12475;BME280;6302;42.624;23.334;2022-09-01T08:45:30;93164.59;;;22.18;100.00
12475;BME280;6302;42.624;23.334;2022-09-01T08:48:04;93155.28;;;22.19;100.00
12475;BME280;6302;42.624;23.334;2022-09-01T08:50:34;93157.91;;;22.13;100.00
12475;BME280;6302;42.624;23.334;2022-09-01T08:53:07;93152.09;;;22.20;100.00
12475;BME280;6302;42.624;23.334;2022-09-01T08:55:40;93153.22;;;22.28;100.00
12475;BME280;6302;42.624;23.334;2022-09-01T08:58:10;93149.09;;;22.33;100.00
12475;BME280;6302;42.624;23.334;2022-09-01T09:00:43;93147.63;;;22.32;100.00
12475;BME280;6302;42.624;23.334;2022-09-01T09:03:16;93143.47;;;22.51;100.00
12475;BME280;6302;42.624;23.334;2022-09-01T09:05:56;93141.53;;;22.72;100.00
12475;BME280;6302;42.624;23.334;2022-09-01T09:08:51;93130.75;;;22.72;100.00
12475;BME280;6302;42.624;23.334;2022-09-01T09:11:36;93135.78;;;22.64;100.00
12475;BME280;6302;42.624;23.334;2022-09-01T09:14:10;93133.09;;;22.64;100.00
12475;BME280;6302;42.624;23.334;2022-09-01T09:16:42;93127.50;;;22.67;100.00
12475;BME280;6302;42.624;23.334;2022-09-01T09:19:16;93133.31;;;22.81;100.00
12475;BME280;6302;42.624;23.334;2022-09-01T09:21:46;93124.78;;;23.08;100.00
12475;BME280;6302;42.624;23.334;2022-09-01T09:24:20;93126.78;;;23.33;100.00
12475;BME280;6302;42.624;23.334;2022-09-01T09:26:49;93124.72;;;23.48;100.00
12475;BME280;6302;42.624;23.334;2022-09-01T09:29:16;93128.13;;;23.69;100.00
12475;BME280;6302;42.624;23.334;2022-09-01T09:31:46;93124.06;;;23.84;100.00
12475;BME280;6302;42.624;23.334;2022-09-01T09:34:32;93125.91;;;23.99;100.00
12475;BME280;6302;42.624;23.334;2022-09-01T09:37:15;93120.31;;;24.08;100.00
12475;BME280;6302;42.624;23.334;2022-09-01T09:39:43;93123.56;;;24.12;100.00
12475;BME280;6302;42.624;23.334;2022-09-01T09:42:12;93119.47;;;24.22;100.00
12475;BME280;6302;42.624;23.334;2022-09-01T09:44:42;93113.66;;;24.40;100.00
12475;BME280;6302;42.624;23.334;2022-09-01T09:47:33;93115.47;;;24.59;100.00
12475;BME280;6302;42.624;23.334;2022-09-01T09:50:11;93110.03;;;24.54;100.00
12475;BME280;6302;42.624;23.334;2022-09-01T09:52:40;93111.75;;;24.57;100.00
12475;BME280;6302;42.624;23.334;2022-09-01T09:55:21;93118.19;;;24.54;100.00
12475;BME280;6302;42.624;23.334;2022-09-01T09:57:49;93110.19;;;24.34;100.00
12475;BME280;6302;42.624;23.334;2022-09-01T10:00:20;93107.22;;;24.32;100.00
12475;BME280;6302;42.624;23.334;2022-09-01T10:02:54;93109.91;;;24.32;100.00
12475;BME280;6302;42.624;23.334;2022-09-01T10:05:34;93111.13;;;24.31;100.00
12475;BME280;6302;42.624;23.334;2022-09-01T10:08:04;93112.88;;;24.34;100.00
12475;BME280;6302;42.624;23.334;2022-09-01T10:10:37;93101.06;;;24.31;100.00
12475;BME280;6302;42.624;23.334;2022-09-01T10:13:09;93106.91;;;24.24;100.00
12475;BME280;6302;42.624;23.334;2022-09-01T10:15:38;93076.56;;;24.15;100.00
12475;BME280;6302;42.624;23.334;2022-09-01T10:18:09;93104.16;;;24.19;100.00
12475;BME280;6302;42.624;23.334;2022-09-01T10:20:41;93108.97;;;24.04;100.00
12475;BME280;6302;42.624;23.334;2022-09-01T10:23:09;93105.75;;;24.05;100.00
12475;BME280;6302;42.624;23.334;2022-09-01T10:25:37;93094.22;;;24.05;100.00
12475;BME280;6302;42.624;23.334;2022-09-01T10:28:11;93093.69;;;24.01;100.00
12475;BME280;6302;42.624;23.334;2022-09-01T10:30:43;93094.75;;;24.09;100.00
12475;BME280;6302;42.624;23.334;2022-09-01T10:33:14;93092.41;;;23.96;100.00
12475;BME280;6302;42.624;23.334;2022-09-01T10:35:44;93091.47;;;23.99;100.00
12475;BME280;6302;42.624;23.334;2022-09-01T10:38:15;93084.59;;;24.04;100.00
12475;BME280;6302;42.624;23.334;2022-09-01T10:40:44;93090.72;;;23.99;100.00
12475;BME280;6302;42.624;23.334;2022-09-01T10:43:38;93088.50;;;24.03;100.00
12475;BME280;6302;42.624;23.334;2022-09-01T10:51:59;93080.13;;;24.01;100.00
12475;BME280;6302;42.624;23.334;2022-09-01T10:54:51;93072.56;;;24.05;100.00
12475;BME280;6302;42.624;23.334;2022-09-01T10:57:27;93073.69;;;24.24;100.00
12475;BME280;6302;42.624;23.334;2022-09-01T11:06:04;93067.34;;;24.38;100.00
12475;BME280;6302;42.624;23.334;2022-09-01T11:08:44;93065.41;;;24.44;100.00
12475;BME280;6302;42.624;23.334;2022-09-01T11:11:23;93068.91;;;24.55;100.00
12475;BME280;6302;42.624;23.334;2022-09-01T11:13:54;93065.97;;;24.59;100.00
12475;BME280;6302;42.624;23.334;2022-09-01T11:16:31;93053.47;;;24.73;100.00
12475;BME280;6302;42.624;23.334;2022-09-01T11:19:21;93065.63;;;24.88;100.00
12475;BME280;6302;42.624;23.334;2022-09-01T11:22:05;93069.56;;;24.87;100.00
12475;BME280;6302;42.624;23.334;2022-09-01T11:25:04;93056.78;;;24.93;100.00
12475;BME280;6302;42.624;23.334;2022-09-01T11:30:40;93040.03;;;25.11;100.00
12475;BME280;6302;42.624;23.334;2022-09-01T11:33:41;93049.72;;;25.40;100.00
12475;BME280;6302;42.624;23.334;2022-09-01T11:36:23;93042.84;;;25.50;100.00
12475;BME280;6302;42.624;23.334;2022-09-01T11:39:01;93040.59;;;25.49;100.00
12475;BME280;6302;42.624;23.334;2022-09-01T11:41:32;93047.03;;;25.57;99.56
12475;BME280;6302;42.624;23.334;2022-09-01T11:44:01;93031.97;;;25.56;95.92
12475;BME280;6302;42.624;23.334;2022-09-01T11:46:32;93024.81;;;25.75;85.96
12475;BME280;6302;42.624;23.334;2022-09-01T11:49:04;93019.13;;;25.73;83.69
12475;BME280;6302;42.624;23.334;2022-09-01T11:51:43;93022.59;;;25.79;79.94
12475;BME280;6302;42.624;23.334;2022-09-01T11:54:13;93015.44;;;25.76;76.42
12475;BME280;6302;42.624;23.334;2022-09-01T11:56:41;93015.44;;;25.87;76.26
12475;BME280;6302;42.624;23.334;2022-09-01T11:59:07;93018.84;;;26.04;72.84
12475;BME280;6302;42.624;23.334;2022-09-01T12:01:36;93017.13;;;26.18;74.25
12475;BME280;6302;42.624;23.334;2022-09-01T12:04:20;93005.47;;;26.28;71.32
12475;BME280;6302;42.624;23.334;2022-09-01T12:06:52;93010.44;;;26.19;72.16
12475;BME280;6302;42.624;23.334;2022-09-01T12:09:30;93006.50;;;26.09;73.77
12475;BME280;6302;42.624;23.334;2022-09-01T12:11:57;93002.56;;;26.04;74.72
12475;BME280;6302;42.624;23.334;2022-09-01T12:14:25;93004.03;;;26.05;76.45
12475;BME280;6302;42.624;23.334;2022-09-01T12:16:56;92994.66;;;26.06;81.20
12475;BME280;6302;42.624;23.334;2022-09-01T12:19:26;93002.06;;;26.11;82.15
12475;BME280;6302;42.624;23.334;2022-09-01T12:21:59;92994.16;;;26.13;81.58
12475;BME280;6302;42.624;23.334;2022-09-01T12:24:31;93001.09;;;26.14;81.64
12475;BME280;6302;42.624;23.334;2022-09-01T12:27:00;92998.59;;;26.16;81.45
12475;BME280;6302;42.624;23.334;2022-09-01T12:29:28;93000.34;;;26.14;80.05
12475;BME280;6302;42.624;23.334;2022-09-01T12:31:56;92988.94;;;26.10;82.20
12475;BME280;6302;42.624;23.334;2022-09-01T12:34:36;92986.03;;;26.13;83.38
12475;BME280;6302;42.624;23.334;2022-09-01T12:37:08;92988.47;;;26.06;83.42
12475;BME280;6302;42.624;23.334;2022-09-01T12:39:37;92986.03;;;26.13;84.51
12475;BME280;6302;42.624;23.334;2022-09-01T12:42:08;92992.66;;;26.23;85.92
12475;BME280;6302;42.624;23.334;2022-09-01T12:44:44;92981.53;;;26.27;84.92
12475;BME280;6302;42.624;23.334;2022-09-01T12:47:17;92982.50;;;26.29;84.82
12475;BME280;6302;42.624;23.334;2022-09-01T12:50:01;92985.72;;;26.33;82.65
12475;BME280;6302;42.624;23.334;2022-09-01T12:52:30;92985.22;;;26.29;82.73
12475;BME280;6302;42.624;23.334;2022-09-01T12:55:13;92985.03;;;26.16;81.93
12475;BME280;6302;42.624;23.334;2022-09-01T12:57:46;92979.09;;;26.12;82.36
12475;BME280;6302;42.624;23.334;2022-09-01T13:00:18;92987.25;;;26.01;80.55
12475;BME280;6302;42.624;23.334;2022-09-01T13:02:47;92983.81;;;25.95;82.78
12475;BME280;6302;42.624;23.334;2022-09-01T13:05:24;92976.13;;;26.05;81.46
12475;BME280;6302;42.624;23.334;2022-09-01T13:07:52;92980.34;;;26.11;82.05
12475;BME280;6302;42.624;23.334;2022-09-01T13:10:22;92979.84;;;26.18;81.28
12475;BME280;6302;42.624;23.334;2022-09-01T13:12:49;92978.34;;;26.17;81.37
12475;BME280;6302;42.624;23.334;2022-09-01T13:15:17;92973.66;;;26.18;82.96
12475;BME280;6302;42.624;23.334;2022-09-01T13:17:45;92978.56;;;26.30;83.76
12475;BME280;6302;42.624;23.334;2022-09-01T13:20:12;92968.13;;;26.40;86.31
12475;BME280;6302;42.624;23.334;2022-09-01T13:22:39;92976.28;;;26.45;89.86